| time (UTC) | temp F | wind direction | speed MPH | gust MPH | rain 1hr in | rain 24hr in | rain mn in | humidity % | barometer mb |
| 20260510194037 | 64 | 248 | 2.0 | 6.0 | 0.00 | 0.00 | 0.00 | 86 | 1012.3 |
| 20260510193016 | 65 | 248 | 2.0 | 6.0 | 0.00 | 0.00 | 0.00 | 86 | 1012.2 |
| 20260510192017 | 65 | 248 | 2.0 | 7.0 | 0.00 | 0.00 | 0.00 | 87 | 1012.2 |
| 20260510191016 | 65 | 270 | 4.0 | 10.0 | 0.00 | 0.00 | 0.00 | 87 | 1011.9 |
| 20260510190017 | 65 | 248 | 4.0 | 9.0 | 0.00 | 0.00 | 0.00 | 87 | 1011.8 |
| 20260510185016 | 65 | 248 | 3.0 | 8.0 | 0.00 | 0.00 | 0.00 | 88 | 1011.6 |
| 20260510184016 | 65 | 248 | 3.0 | 8.0 | 0.00 | 0.00 | 0.00 | 88 | 1011.6 |
| 20260510183016 | 65 | 248 | 2.0 | 8.0 | 0.00 | 0.00 | 0.00 | 87 | 1011.7 |
| 20260510182016 | 66 | 248 | 4.0 | 12.0 | 0.00 | 0.00 | 0.00 | 87 | 1011.6 |
| 20260510181036 | 66 | 248 | 3.0 | 7.0 | 0.00 | 0.00 | 0.00 | 85 | 1011.6 |
| 20260510180017 | 66 | 248 | 4.0 | 9.0 | 0.00 | 0.00 | 0.00 | 84 | 1011.4 |
| 20260510175016 | 67 | 248 | 3.0 | 8.0 | 0.00 | 0.00 | 0.00 | 83 | 1011.4 |
| 20260510174016 | 67 | 248 | 3.0 | 8.0 | 0.00 | 0.00 | 0.00 | 82 | 1011.4 |
| 20260510173016 | 67 | 248 | 3.0 | 9.0 | 0.00 | 0.00 | 0.00 | 81 | 1011.2 |
| 20260510172016 | 68 | 248 | 3.0 | 8.0 | 0.00 | 0.00 | 0.00 | 80 | 1011.2 |
| 20260510171016 | 68 | 225 | 4.0 | 8.0 | 0.00 | 0.00 | 0.00 | 79 | 1011.1 |
| 20260510170016 | 68 | 248 | 4.0 | 10.0 | 0.00 | 0.00 | 0.00 | 78 | 1011.0 |
| 20260510165017 | 68 | 248 | 3.0 | 7.0 | 0.00 | 0.00 | 0.00 | 78 | 1011.0 |
| 20260510164016 | 69 | 203 | 3.0 | 11.0 | 0.00 | 0.00 | 0.00 | 77 | 1011.0 |
| 20260510163016 | 69 | 203 | 4.0 | 10.0 | 0.00 | 0.00 | 0.00 | 76 | 1011.1 |
| 20260510162037 | 70 | 203 | 5.0 | 12.0 | 0.00 | 0.00 | 0.00 | 75 | 1011.1 |
| 20260510161016 | 70 | 203 | 6.0 | 13.0 | 0.00 | 0.00 | 0.00 | 73 | 1011.1 |
| 20260510160017 | 70 | 225 | 5.0 | 11.0 | 0.00 | 0.00 | 0.00 | 73 | 1011.1 |
| 20260510155036 | 70 | 225 | 5.0 | 12.0 | 0.00 | 0.00 | 0.00 | 70 | 1011.5 |
| 20260510154016 | 71 | 225 | 4.0 | 14.0 | 0.00 | 0.00 | 0.00 | 68 | 1011.3 |
| 20260510153016 | 72 | 203 | 5.0 | 12.0 | 0.00 | 0.00 | 0.00 | 67 | 1011.3 |
| 20260510152016 | 72 | 203 | 5.0 | 12.0 | 0.00 | 0.00 | 0.00 | 66 | 1011.3 |
| 20260510151016 | 73 | 203 | 5.0 | 11.0 | 0.00 | 0.00 | 0.00 | 66 | 1011.4 |
| 20260510150016 | 72 | 248 | 2.0 | 6.0 | 0.00 | 0.00 | 0.00 | 71 | 1011.4 |
| 20260510145016 | 73 | 270 | 4.0 | 10.0 | 0.00 | 0.00 | 0.00 | 69 | 1011.5 |
| 20260510144016 | 73 | 203 | 4.0 | 10.0 | 0.00 | 0.00 | 0.00 | 69 | 1011.5 |
| 20260510143016 | 73 | 225 | 4.0 | 9.0 | 0.00 | 0.00 | 0.00 | 69 | 1011.7 |
| 20260510142016 | 72 | 203 | 3.0 | 9.0 | 0.00 | 0.00 | 0.00 | 72 | 1011.8 |
| 20260510141016 | 71 | 248 | 3.0 | 6.0 | 0.00 | 0.00 | 0.00 | 73 | 1011.9 |
| 20260510140016 | 70 | 203 | 2.0 | 5.0 | 0.00 | 0.00 | 0.00 | 73 | 1012.0 |
| 20260510135016 | 70 | 248 | 3.0 | 8.0 | 0.00 | 0.00 | 0.00 | 73 | 1012.1 |
| 20260510134016 | 71 | 225 | 1.0 | 5.0 | 0.00 | 0.00 | 0.00 | 73 | 1012.1 |
| 20260510133016 | 71 | 225 | 2.0 | 7.0 | 0.00 | 0.00 | 0.00 | 72 | 1012.1 |
| 20260510132016 | 71 | 248 | 2.0 | 6.0 | 0.00 | 0.00 | 0.00 | 71 | 1012.0 |
| 20260510131016 | 71 | 225 | 3.0 | 6.0 | 0.00 | 0.00 | 0.00 | 70 | 1012.0 |
| 20260510130016 | 72 | 225 | 5.0 | 10.0 | 0.00 | 0.00 | 0.00 | 69 | 1012.1 |
| 20260510125056 | 73 | 225 | 1.0 | 4.0 | 0.00 | 0.00 | 0.00 | 65 | 1012.0 |
| 20260510124015 | 73 | 248 | 1.0 | 4.0 | 0.00 | 0.00 | 0.00 | 65 | 1011.9 |
| 20260510123016 | 72 | 270 | 2.0 | 6.0 | 0.00 | 0.00 | 0.00 | 65 | 1012.0 |
| 20260510122015 | 72 | 270 | 6.0 | 12.0 | 0.00 | 0.00 | 0.00 | 64 | 1012.0 |
| 20260510121016 | 72 | 270 | 4.0 | 10.0 | 0.00 | 0.00 | 0.00 | 64 | 1011.8 |
| 20260510120015 | 72 | 270 | 9.0 | 17.0 | 0.00 | 0.00 | 0.00 | 66 | 1012.0 |
| 20260510115016 | 71 | 270 | 5.0 | 14.0 | 0.00 | 0.00 | 0.00 | 68 | 1012.1 |
| 20260510114017 | 71 | 248 | 5.0 | 12.0 | 0.00 | 0.00 | 0.00 | 67 | 1012.3 |
| 20260510113015 | 71 | 248 | 5.0 | 9.0 | 0.00 | 0.00 | 0.00 | 66 | 1012.3 |
| 20260510112015 | 71 | 270 | 9.0 | 19.0 | 0.00 | 0.00 | 0.00 | 64 | 1012.3 |
| 20260510111016 | 72 | 270 | 9.0 | 16.0 | 0.00 | 0.00 | 0.00 | 63 | 1012.3 |
| 20260510110016 | 71 | 270 | 6.0 | 17.0 | 0.00 | 0.00 | 0.00 | 64 | 1012.2 |
| 20260510105015 | 72 | 270 | 5.0 | 11.0 | 0.00 | 0.00 | 0.00 | 64 | 1012.2 |
| 20260510104015 | 73 | 225 | 7.0 | 13.0 | 0.00 | 0.00 | 0.00 | 63 | 1012.3 |
| 20260510103036 | 75 | 225 | 6.0 | 15.0 | 0.00 | 0.00 | 0.00 | 63 | 1012.1 |
| 20260510102015 | 76 | 225 | 4.0 | 9.0 | 0.00 | 0.00 | 0.00 | 59 | 1011.9 |
| 20260510101015 | 76 | 203 | 2.0 | 6.0 | 0.00 | 0.00 | 0.00 | 58 | 1011.8 |
| 20260510100015 | 76 | 225 | 2.0 | 5.0 | 0.00 | 0.00 | 0.00 | 60 | 1011.9 |
| 20260510095017 | 76 | 203 | 4.0 | 6.0 | 0.00 | 0.00 | 0.00 | 61 | 1011.8 |
| 20260510094015 | 77 | 180 | 3.0 | 7.0 | 0.00 | 0.00 | 0.00 | 61 | 1011.9 |
| 20260510093017 | 76 | 113 | 4.0 | 9.0 | 0.00 | 0.00 | 0.00 | 64 | 1011.9 |
| 20260510092015 | 77 | 90 | 2.0 | 6.0 | 0.00 | 0.00 | 0.00 | 62 | 1011.6 |
| 20260510091017 | 76 | 113 | 3.0 | 7.0 | 0.00 | 0.00 | 0.00 | 61 | 1011.3 |
| 20260510090017 | 75 | 113 | 4.0 | 8.0 | 0.00 | 0.00 | 0.00 | 62 | 1011.3 |
| 20260510085017 | 75 | 113 | 5.0 | 10.0 | 0.00 | 0.00 | 0.00 | 63 | 1011.5 |
| 20260510084057 | 75 | 113 | 5.0 | 10.0 | 0.00 | 0.00 | 0.00 | 62 | 1011.8 |
| 20260510083017 | 74 | 90 | 5.0 | 9.0 | 0.00 | 0.00 | 0.00 | 64 | 1011.8 |
| 20260510082017 | 74 | 113 | 5.0 | 10.0 | 0.00 | 0.00 | 0.00 | 64 | 1012.0 |
| 20260510081017 | 73 | 113 | 7.0 | 11.0 | 0.00 | 0.00 | 0.00 | 63 | 1012.0 |
| 20260510080017 | 73 | 68 | 3.0 | 9.0 | 0.00 | 0.00 | 0.00 | 63 | 1011.9 |
| 20260510075017 | 73 | 68 | 5.0 | 9.0 | 0.00 | 0.00 | 0.00 | 61 | 1012.0 |
| 20260510074035 | 72 | 113 | 5.0 | 12.0 | 0.00 | 0.00 | 0.00 | 61 | 1012.0 |
| 20260510073037 | 72 | 68 | 5.0 | 9.0 | 0.00 | 0.00 | 0.00 | 62 | 1011.9 |
| 20260510072017 | 71 | 45 | 8.0 | 15.0 | 0.00 | 0.00 | 0.00 | 62 | 1011.9 |
| 20260510071017 | 70 | 23 | 6.0 | 10.0 | 0.00 | 0.00 | 0.00 | 65 | 1012.1 |
| 20260510070017 | 69 | 45 | 5.0 | 9.0 | 0.00 | 0.00 | 0.00 | 67 | 1012.4 |
| 20260510065017 | 68 | 45 | 4.0 | 9.0 | 0.00 | 0.00 | 0.00 | 67 | 1012.5 |
| 20260510064017 | 68 | 68 | 4.0 | 10.0 | 0.00 | 0.00 | 0.00 | 67 | 1012.4 |
| 20260510063017 | 68 | 68 | 5.0 | 9.0 | 0.00 | 0.00 | 0.00 | 67 | 1012.3 |
| 20260510062017 | 68 | 23 | 6.0 | 14.0 | 0.00 | 0.00 | 0.00 | 69 | 1012.3 |
| 20260510061017 | 68 | 45 | 6.0 | 12.0 | 0.00 | 0.00 | 0.00 | 68 | 1012.4 |
| 20260510060017 | 67 | 45 | 8.0 | 14.0 | 0.00 | 0.00 | 0.00 | 70 | 1012.4 |
| 20260510055017 | 66 | 23 | 4.0 | 7.0 | 0.00 | 0.00 | 0.00 | 73 | 1012.6 |
| 20260510054017 | 66 | 68 | 3.0 | 7.0 | 0.00 | 0.00 | 0.00 | 73 | 1012.7 |
| 20260510053017 | 66 | 23 | 6.0 | 10.0 | 0.00 | 0.00 | 0.00 | 74 | 1012.3 |
| 20260510052017 | 65 | 23 | 4.0 | 7.0 | 0.00 | 0.00 | 0.00 | 74 | 1012.5 |
| 20260510051017 | 65 | 45 | 4.0 | 10.0 | 0.00 | 0.00 | 0.00 | 76 | 1012.5 |
| 20260510050017 | 64 | 45 | 4.0 | 10.0 | 0.00 | 0.00 | 0.00 | 77 | 1012.4 |
| 20260510045017 | 64 | 23 | 8.0 | 13.0 | 0.00 | 0.00 | 0.00 | 77 | 1012.3 |
| 20260510044017 | 63 | 23 | 6.0 | 10.0 | 0.00 | 0.00 | 0.00 | 81 | 1012.5 |
| 20260510043017 | 62 | 45 | 1.0 | 4.0 | 0.00 | 0.00 | 0.00 | 83 | 1012.7 |
| 20260510042017 | 62 | 68 | 2.0 | 6.0 | 0.00 | 0.00 | 0.00 | 82 | 1012.7 |
| 20260510041017 | 62 | 90 | 4.0 | 8.0 | 0.00 | 0.00 | 0.00 | 84 | 1012.5 |
| 20260510040017 | 62 | 45 | 2.0 | 4.0 | 0.00 | 0.00 | 0.00 | 82 | 1012.5 |
| 20260510035017 | 62 | 23 | 4.0 | 7.0 | 0.00 | 0.00 | 0.00 | 82 | 1013.0 |
| 20260510034017 | 62 | 338 | 3.0 | 7.0 | 0.00 | 0.00 | 0.00 | 83 | 1013.3 |
| 20260510033017 | 62 | 338 | 3.0 | 6.0 | 0.00 | 0.00 | 0.00 | 84 | 1013.6 |
| 20260510032017 | 61 | 338 | 3.0 | 6.0 | 0.00 | 0.00 | 0.00 | 85 | 1013.7 |
| 20260510031037 | 61 | 338 | 2.0 | 4.0 | 0.00 | 0.00 | 0.00 | 86 | 1013.8 |
| 20260510030017 | 61 | 338 | 2.0 | 4.0 | 0.00 | 0.00 | 0.00 | 87 | 1013.8 |
| 20260510025057 | 61 | 0.0 | 0.0 | 0.00 | 0.00 | 0.00 | 86 | 1013.9 | |
| 20260510024017 | 61 | 338 | 2.0 | 5.0 | 0.00 | 0.00 | 0.00 | 85 | 1014.2 |
| 20260510023117 | 61 | 293 | 1.0 | 3.0 | 0.00 | 0.00 | 0.00 | 85 | 1014.1 |
| 20260510022017 | 62 | 45 | 2.0 | 4.0 | 0.00 | 0.00 | 0.00 | 83 | 1014.5 |
| 20260510021016 | 63 | 45 | 1.0 | 3.0 | 0.00 | 0.00 | 0.00 | 79 | 1014.1 |
| 20260510020016 | 65 | 135 | 1.0 | 4.0 | 0.00 | 0.00 | 0.00 | 74 | 1014.6 |
| 20260510015016 | 67 | 270 | 1.0 | 6.0 | 0.00 | 0.00 | 0.00 | 68 | 1014.6 |
| 20260510014057 | 67 | 293 | 2.0 | 7.0 | 0.00 | 0.00 | 0.00 | 68 | 1014.5 |
| 20260510013017 | 66 | 293 | 5.0 | 13.0 | 0.00 | 0.00 | 0.00 | 70 | 1014.5 |
| 20260510012017 | 65 | 0.0 | 2.0 | 0.00 | 0.00 | 0.00 | 73 | 1014.4 | |
| 20260510011016 | 65 | 180 | 1.0 | 4.0 | 0.00 | 0.00 | 0.00 | 73 | 1014.5 |
| 20260510010056 | 65 | 270 | 2.0 | 5.0 | 0.00 | 0.00 | 0.00 | 72 | 1014.2 |
| 20260510005017 | 65 | 203 | 3.0 | 7.0 | 0.00 | 0.00 | 0.00 | 71 | 1013.4 |
| 20260510004016 | 65 | 0.0 | 3.0 | 0.00 | 0.00 | 0.00 | 71 | 1012.6 | |
| 20260510003016 | 65 | 68 | 2.0 | 3.0 | 0.00 | 0.00 | 0.00 | 71 | 1012.3 |
| 20260510002036 | 65 | 68 | 3.0 | 6.0 | 0.00 | 0.00 | 0.00 | 71 | 1012.5 |
| 20260510001016 | 65 | 45 | 2.0 | 5.0 | 0.00 | 0.00 | 0.00 | 71 | 1012.9 |
| 20260510000016 | 65 | 45 | 3.0 | 6.0 | 0.00 | 0.00 | 0.00 | 70 | 1013.1 |
| 20260509235016 | 66 | 68 | 1.0 | 4.0 | 0.00 | 0.00 | 0.00 | 69 | 1013.5 |
| 20260509234016 | 65 | 23 | 5.0 | 10.0 | 0.00 | 0.00 | 0.00 | 70 | 1013.2 |
| 20260509233016 | 65 | 45 | 3.0 | 7.0 | 0.00 | 0.00 | 0.00 | 71 | 1013.2 |
| 20260509232036 | 64 | 45 | 1.0 | 2.0 | 0.00 | 0.00 | 0.00 | 74 | 1013.2 |
| 20260509231036 | 64 | 0.0 | 3.0 | 0.00 | 0.00 | 0.00 | 74 | 1013.3 | |
| 20260509230016 | 65 | 90 | 2.0 | 4.0 | 0.00 | 0.00 | 0.00 | 72 | 1013.1 |
| 20260509225016 | 66 | 90 | 1.0 | 4.0 | 0.00 | 0.00 | 0.00 | 71 | 1013.0 |
| 20260509224016 | 66 | 68 | 2.0 | 4.0 | 0.00 | 0.00 | 0.00 | 71 | 1013.3 |
| 20260509223038 | 66 | 45 | 3.0 | 6.0 | 0.00 | 0.00 | 0.00 | 70 | 1013.3 |
| 20260509222036 | 66 | 23 | 4.0 | 6.0 | 0.00 | 0.00 | 0.00 | 69 | 1013.4 |
| 20260509221016 | 66 | 45 | 1.0 | 4.0 | 0.00 | 0.00 | 0.00 | 71 | 1013.5 |
| 20260509220016 | 65 | 45 | 2.0 | 4.0 | 0.00 | 0.00 | 0.00 | 73 | 1013.6 |
| 20260509215017 | 65 | 45 | 2.0 | 4.0 | 0.00 | 0.00 | 0.00 | 74 | 1013.4 |
| 20260509214016 | 65 | 45 | 4.0 | 6.0 | 0.00 | 0.00 | 0.00 | 75 | 1013.1 |
| 20260509213037 | 65 | 45 | 3.0 | 9.0 | 0.00 | 0.00 | 0.00 | 75 | 1013.1 |
| 20260509212017 | 65 | 90 | 3.0 | 8.0 | 0.00 | 0.00 | 0.00 | 74 | 1013.1 |
| 20260509211016 | 65 | 0.0 | 2.0 | 0.00 | 0.00 | 0.00 | 72 | 1012.9 | |
| 20260509210016 | 65 | 45 | 4.0 | 9.0 | 0.00 | 0.00 | 0.00 | 74 | 1012.2 |
| 20260509205017 | 64 | 68 | 5.0 | 8.0 | 0.00 | 0.00 | 0.00 | 75 | 1012.4 |
| 20260509204016 | 64 | 68 | 3.0 | 6.0 | 0.00 | 0.00 | 0.00 | 75 | 1012.9 |
| 20260509203037 | 64 | 45 | 4.0 | 8.0 | 0.00 | 0.00 | 0.00 | 76 | 1013.6 |
| 20260509202016 | 63 | 23 | 5.0 | 8.0 | 0.00 | 0.00 | 0.00 | 78 | 1014.0 |
| 20260509201017 | 63 | 45 | 1.0 | 4.0 | 0.00 | 0.00 | 0.00 | 79 | 1014.4 |
| 20260509200016 | 63 | 0.0 | 1.0 | 0.00 | 0.00 | 0.00 | 79 | 1014.7 | |
| 20260509195016 | 63 | 45 | 1.0 | 2.0 | 0.00 | 0.00 | 0.00 | 79 | 1014.8 |